Flight Track Log - Related Links

Times and Time Zones

All times are in EDT time to prevent confusion due to time zone crossing. See the FLG3735 flight status page for this flight to view local times or setup timezone preferences in your user account.

Time Position Orientation Groundspeed Altitude Reporting Facility
EDT Latitude Longitude Course Direction KTS MPH feet Rate Location/Type
Wed 10:13:28 PM 42.1994 -83.3608 82° East 168 193 1,200  Level Cleveland Center
Wed 10:14:59 PM 42.1139 -83.3600 180° South 220 253 4,100 1,808 Climbing Cleveland Center
Wed 10:15:54 PM 42.0494 -83.3600 180° South 287 330 5,600 2,066 Climbing Cleveland Center
Wed 10:16:00 PM 42.2750 -82.9502 71° East  Level FlightAware Approximate
Wed 10:17:00 PM 42.3031 -82.8179 75° East  Level FlightAware Approximate
Wed 10:17:01 PM 42.0017 -83.2656 124° Southeast 290 334 8,300  Level Cleveland Center
Wed 10:18:00 PM 42.3234 -82.6833 82° East  Level FlightAware Approximate
Wed 10:18:02 PM 42.0553 -83.1953 44° Northeast 273 314 9,900  Level Cleveland Center
Wed 10:18:50 PM 42.0983 -83.1381 45° Northeast 284 327 10,500 882 Climbing Cleveland Center
Wed 10:19:10 PM 42.1114 -83.1106 57° Northeast 291 335 10,900 1,575 Climbing Cleveland Center
Wed 10:20:10 PM 42.1572 -83.0144 57° Northeast 308 354 12,600 1,059 Climbing Cleveland Center
Wed 10:21:09 PM 42.2072 -82.9100 57° Northeast 313 360 13,000 400 Climbing Cleveland Center
Wed 10:22:10 PM 42.2553 -82.8078 58° Northeast 319 367 13,400 843 Climbing Cleveland Center
Wed 10:23:10 PM 42.3094 -82.7003 56° Northeast 325 374 14,700 1,500 Climbing Cleveland Center
Wed 10:24:10 PM 42.3450 -82.5778 69° East 336 387 16,400 1,150 Climbing Cleveland Center
Wed 10:25:10 PM 42.3411 -82.4372 92° East 351 404 17,000 908 Climbing Cleveland Center
Wed 10:26:09 PM 42.3369 -82.2967 92° East 351 404 18,200 1,200 Climbing Cleveland Center
Wed 10:27:10 PM 42.3328 -82.1533 92° East 362 417 19,400 1,050 Climbing Cleveland Center
Wed 10:28:09 PM 42.3283 -82.0100 92° East 379 436 20,300 950 Climbing Cleveland Center
Wed 10:29:10 PM 42.3219 -81.8553 93° East 391 450 21,300 843 Climbing Cleveland Center
Wed 10:30:10 PM 42.3172 -81.7119 93° East 391 450 22,000 900 Climbing Cleveland Center
Wed 10:31:10 PM 42.3103 -81.5603 93° East 400 460 23,100 1,000 Climbing Cleveland Center
Wed 10:32:10 PM 42.3050 -81.4114 93° East 405 466 24,000 950 Climbing Cleveland Center
Wed 10:33:10 PM 42.2997 -81.2625 93° East 400 460 25,000 850 Climbing Cleveland Center
Wed 10:34:10 PM 42.2944 -81.1081 93° East 406 467 25,700 700 Climbing Cleveland Center
Wed 10:35:10 PM 42.2867 -80.9564 94° East 406 467 26,400 650 Climbing Cleveland Center
Wed 10:36:10 PM 42.2808 -80.8189 93° East 406 467 27,000 700 Climbing Cleveland Center
Wed 10:37:10 PM 42.2725 -80.6703 94° East 406 467 27,800 756 Climbing Cleveland Center
Wed 10:38:09 PM 42.2642 -80.5158 94° East 406 467 28,500 700 Climbing Cleveland Center
Wed 10:39:10 PM 42.2786 -80.3669 82° East 399 459 29,200 595 Climbing Cleveland Center
Wed 10:40:10 PM 42.2928 -80.2183 83° East 405 466 29,700 500 Climbing Cleveland Center
Wed 10:41:10 PM 42.3089 -80.0667 82° East 405 466 30,200 500 Climbing Cleveland Center
Wed 10:42:10 PM 42.3247 -79.9036 82° East 405 466 30,700 400 Climbing Cleveland Center
Wed 10:43:10 PM 42.3406 -79.7544 82° East 405 466 31,000 150 Climbing Cleveland Center
Wed 10:44:10 PM 42.3539 -79.6025 83° East 405 466 31,000  Level Cleveland Center
Wed 10:45:10 PM 42.3672 -79.4533 83° East 405 466 31,000  Level Cleveland Center
Wed 10:46:09 PM 42.3822 -79.3014 82° East 405 466 31,000  Level Cleveland Center
Wed 10:47:09 PM 42.3972 -79.1492 82° East 405 466 31,000  Level Cleveland Center
Wed 10:48:09 PM 42.4119 -78.9972 82° East 405 466 31,000  Level Cleveland Center
Wed 10:49:09 PM 42.4244 -78.8617 83° East 405 466 31,000  Level Cleveland Center
Wed 10:50:09 PM 42.4367 -78.7067 84° East 405 466 31,000  Level Cleveland Center
Wed 10:51:09 PM 42.4486 -78.5572 84° East 405 466 31,000  Level Cleveland Center
Wed 10:52:09 PM 42.4628 -78.4075 83° East 405 466 31,000  Level Cleveland Center
Wed 10:53:09 PM 42.4744 -78.2578 84° East 405 466 31,000  Level Cleveland Center
Wed 10:54:09 PM 42.4858 -78.1056 84° East 405 466 31,000  Level Cleveland Center
Wed 10:55:09 PM 42.4969 -77.9558 84° East 405 466 31,000  Level Cleveland Center
Wed 10:56:09 PM 42.5103 -77.8086 83° East 399 459 31,000 -172 Level Cleveland Center
Wed 10:58:03 PM 42.5311 -77.5069 85° East 433 498 30,500 -345 Descending Boston Center
Wed 10:59:03 PM 42.5419 -77.3556 84° East 418 481 30,000 -500 Descending Boston Center
Wed 11:00:03 PM 42.5547 -77.2072 83° East 398 458 29,500 -500 Descending Boston Center
Wed 11:01:03 PM 42.5647 -77.0642 85° East 387 445 29,000 -250 Descending Boston Center
Wed 11:02:03 PM 42.5747 -76.9181 85° East 382 440 29,000  Level Boston Center
Wed 11:03:03 PM 42.5842 -76.7861 84° East 387 445 29,000  Level Boston Center
Wed 11:04:03 PM 42.5936 -76.6400 85° East 387 445 29,000  Level Boston Center
Wed 11:05:03 PM 42.6053 -76.4914 84° East 387 445 29,000  Level Boston Center
Wed 11:06:03 PM 42.6147 -76.3425 85° East 387 445 29,000  Level Boston Center
Wed 11:07:03 PM 42.6267 -76.1739 84° East 392 451 29,000  Level Boston Center
Wed 11:08:03 PM 42.6339 -76.0161 86° East 404 465 29,000 -50 Level Boston Center
Wed 11:09:03 PM 42.6428 -75.8586 86° East 409 471 28,900 -400 Descending Boston Center
Wed 11:10:03 PM 42.6539 -75.6981 85° East 419 482 28,200 -1,450 Descending Boston Center
Wed 11:11:03 PM 42.6622 -75.5461 86° East 419 482 26,000 -2,150 Descending Boston Center
Wed 11:12:03 PM 42.6700 -75.4108 85° East 402 463 23,900 -2,050 Descending Boston Center
Wed 11:13:03 PM 42.6778 -75.2700 86° East 391 450 21,900 -2,000 Descending Boston Center
Wed 11:14:03 PM 42.6853 -75.1292 86° East 375 432 19,900 -2,000 Descending Boston Center
Wed 11:15:03 PM 42.6928 -74.9939 86° East 364 419 17,900 -1,950 Descending Boston Center
Wed 11:16:03 PM 42.7000 -74.8528 86° East 364 419 16,000 -1,891 Descending Boston Center
Wed 11:16:35 PM 42.7017 -74.7739 88° East 349 402 15,000 -2,036 Descending Boston Center
Wed 11:16:59 PM 42.7069 -74.7147 83° East 344 396 14,100 -1,906 Descending Boston Center
Wed 11:18:00 PM 42.7136 -74.5878 86° East 336 387 12,300 -1,623 Descending Boston Center
Wed 11:19:01 PM 42.7178 -74.4747 87° East 303 349 10,800 -1,512 Descending Boston Center
Wed 11:20:03 PM 42.7300 -74.3678 81° East 285 328 9,200 -1,574 Descending Boston Center
Wed 11:21:03 PM 42.7667 -74.2869 58° Northeast 263 303 7,600 -1,800 Descending Boston Center
Wed 11:22:03 PM 42.8122 -74.1919 57° Northeast 282 325 5,600 -1,500 Descending Boston Center
Wed 11:23:03 PM 42.8383 -74.1050 68° East 267 307 4,600 -1,200 Descending Boston Center
Wed 11:24:03 PM 42.8375 -74.0172 91° East 248 285 3,200 -800 Descending Boston Center
Wed 11:25:03 PM 42.8389 -73.9239 89° East 233 268 3,000 -200 Descending Boston Center

Login

Don't have an account? Register now (free) for customized features, flight alerts, and more!